createdAt,value
2019-05-19T00:00:05.353Z,15.45
2019-05-19T00:02:32.358Z,15.51
2019-05-19T00:04:59.347Z,15.52
2019-05-19T00:07:26.409Z,15.52
2019-05-19T00:09:53.432Z,15.58
2019-05-19T00:12:20.439Z,15.57
2019-05-19T00:14:47.466Z,15.59
2019-05-19T00:17:14.466Z,15.64
2019-05-19T00:19:41.510Z,15.71
2019-05-19T00:22:08.520Z,15.75
2019-05-19T00:24:35.512Z,15.78
2019-05-19T00:27:02.641Z,15.79
2019-05-19T00:29:29.663Z,15.80
2019-05-19T00:31:56.775Z,15.82
2019-05-19T00:34:23.847Z,15.80
2019-05-19T00:36:50.857Z,15.76
2019-05-19T00:39:17.889Z,15.71
2019-05-19T00:41:44.891Z,15.64
2019-05-19T00:44:11.925Z,15.67
2019-05-19T00:46:38.997Z,15.65
2019-05-19T00:49:05.996Z,15.55
2019-05-19T00:51:33.523Z,15.57
2019-05-19T00:54:00.561Z,15.54
2019-05-19T00:56:27.778Z,15.50
2019-05-19T00:58:57.033Z,15.37
2019-05-19T01:01:24.047Z,15.43
2019-05-19T01:03:51.061Z,15.46
2019-05-19T01:06:18.104Z,15.49
2019-05-19T01:08:45.115Z,15.50
2019-05-19T01:11:12.154Z,15.52
2019-05-19T01:13:39.180Z,15.52
2019-05-19T01:16:06.193Z,15.49
2019-05-19T01:18:33.202Z,15.44
2019-05-19T01:21:00.454Z,15.42
2019-05-19T01:23:27.520Z,15.42
2019-05-19T01:25:54.573Z,15.34
2019-05-19T01:28:21.624Z,15.42
2019-05-19T01:30:48.691Z,15.41
2019-05-19T01:33:15.730Z,15.38
2019-05-19T01:35:42.765Z,15.34
2019-05-19T01:38:09.784Z,15.32
2019-05-19T01:40:36.790Z,15.33
2019-05-19T01:43:03.815Z,15.33
2019-05-19T01:45:30.826Z,15.30
2019-05-19T01:47:57.834Z,15.26
2019-05-19T01:50:24.887Z,15.14
2019-05-19T01:52:51.916Z,15.14
2019-05-19T01:55:18.923Z,15.22
2019-05-19T01:57:45.949Z,15.23
2019-05-19T02:00:13.181Z,15.20
2019-05-19T02:02:40.231Z,15.18
2019-05-19T02:05:07.809Z,15.13
2019-05-19T02:07:34.829Z,15.20
2019-05-19T02:10:02.213Z,15.12
2019-05-19T02:12:29.448Z,15.00
2019-05-19T02:14:56.460Z,15.05
2019-05-19T02:17:23.513Z,15.02
2019-05-19T02:19:50.553Z,14.90
2019-05-19T02:22:17.574Z,14.91
2019-05-19T02:24:44.617Z,14.94
2019-05-19T02:27:11.660Z,14.82
2019-05-19T02:29:38.682Z,14.84
2019-05-19T02:32:05.755Z,14.79
2019-05-19T02:34:32.903Z,14.68
2019-05-19T02:36:59.877Z,14.75
2019-05-19T02:39:26.906Z,14.58
2019-05-19T02:41:55.684Z,14.58
2019-05-19T02:44:23.816Z,14.68
2019-05-19T02:46:52.148Z,14.68
2019-05-19T02:49:19.928Z,14.68
2019-05-19T02:51:49.248Z,14.70
2019-05-19T02:54:18.623Z,14.70
2019-05-19T02:56:47.237Z,14.70
2019-05-19T02:59:15.270Z,14.69
2019-05-19T03:02:06.874Z,14.62
2019-05-19T03:04:35.077Z,14.59
2019-05-19T03:07:02.163Z,14.53
2019-05-19T03:09:29.170Z,14.29
2019-05-19T03:11:56.173Z,14.24
2019-05-19T03:14:23.210Z,14.21
2019-05-19T03:16:50.229Z,14.22
2019-05-19T03:19:17.251Z,14.20
2019-05-19T03:21:44.283Z,14.21
2019-05-19T03:24:11.317Z,14.17
2019-05-19T03:26:38.350Z,14.06
2019-05-19T03:29:05.695Z,14.01
2019-05-19T03:31:40.212Z,14.11
2019-05-19T03:34:07.295Z,14.18
2019-05-19T03:36:34.335Z,14.13
2019-05-19T03:39:01.365Z,13.96
2019-05-19T03:41:28.485Z,13.85
2019-05-19T03:43:55.545Z,13.81
2019-05-19T03:46:22.562Z,13.81
2019-05-19T03:48:49.580Z,13.84
2019-05-19T03:51:30.395Z,13.91
2019-05-19T03:53:45.600Z,14.00
2019-05-19T03:56:12.642Z,14.07
2019-05-19T03:58:39.663Z,14.06
2019-05-19T04:01:06.794Z,14.03
2019-05-19T04:03:33.825Z,14.15
2019-05-19T04:06:00.881Z,14.15
2019-05-19T04:08:27.925Z,14.18
2019-05-19T04:10:54.959Z,14.19
2019-05-19T04:13:22.004Z,14.14
2019-05-19T04:15:49.169Z,14.14
2019-05-19T04:18:16.184Z,14.15
2019-05-19T04:20:43.215Z,14.12
2019-05-19T04:23:10.285Z,14.08
2019-05-19T04:25:37.303Z,14.05
2019-05-19T04:28:04.314Z,14.05
2019-05-19T04:30:31.372Z,14.05
2019-05-19T04:32:58.449Z,14.09
2019-05-19T04:35:25.487Z,14.11
2019-05-19T04:37:52.514Z,14.15
2019-05-19T04:40:19.564Z,14.13
2019-05-19T04:42:46.585Z,14.23
2019-05-19T04:45:13.693Z,14.22
2019-05-19T04:47:40.723Z,14.36
2019-05-19T04:50:07.738Z,14.34
2019-05-19T04:52:34.744Z,14.36
2019-05-19T04:55:01.932Z,14.34
2019-05-19T04:57:28.952Z,14.41
2019-05-19T04:59:56.001Z,14.55
2019-05-19T05:02:23.088Z,14.48
2019-05-19T05:04:50.117Z,14.58
2019-05-19T05:07:17.168Z,14.74
2019-05-19T05:09:44.219Z,14.86
2019-05-19T05:12:11.662Z,14.91
2019-05-19T05:14:38.674Z,14.87
2019-05-19T05:17:05.698Z,14.93
2019-05-19T05:19:32.701Z,14.97
2019-05-19T05:21:59.732Z,14.95
2019-05-19T05:24:28.686Z,15.02
2019-05-19T05:26:55.732Z,15.19
2019-05-19T05:29:22.773Z,15.29
2019-05-19T05:31:49.820Z,15.33
2019-05-19T05:34:16.880Z,15.36
2019-05-19T05:36:43.894Z,15.39
2019-05-19T05:39:10.939Z,15.34
2019-05-19T05:41:37.943Z,15.37
2019-05-19T05:44:05.055Z,15.41
2019-05-19T05:46:32.077Z,15.41
2019-05-19T05:48:59.093Z,15.20
2019-05-19T05:51:26.122Z,15.06
2019-05-19T05:53:53.163Z,15.32
2019-05-19T05:56:20.189Z,15.37
2019-05-19T05:58:47.231Z,15.29
2019-05-19T06:01:14.256Z,15.33
2019-05-19T06:03:41.320Z,15.46
2019-05-19T06:06:08.392Z,15.53
2019-05-19T06:08:35.427Z,15.65
2019-05-19T06:11:02.469Z,15.63
2019-05-19T06:13:29.571Z,15.82
2019-05-19T06:15:56.627Z,15.99
2019-05-19T06:18:24.027Z,16.11
2019-05-19T06:20:51.191Z,16.12
2019-05-19T06:23:18.239Z,16.23
2019-05-19T06:25:45.293Z,16.30
2019-05-19T06:28:12.383Z,16.38
2019-05-19T06:30:39.480Z,16.63
2019-05-19T06:33:06.532Z,16.55
2019-05-19T06:35:33.622Z,16.70
2019-05-19T06:38:00.653Z,16.84
2019-05-19T06:40:27.717Z,16.98
2019-05-19T06:42:54.975Z,17.12
2019-05-19T06:45:22.021Z,17.15
2019-05-19T06:47:49.280Z,17.32
2019-05-19T06:50:19.131Z,17.27
2019-05-19T06:52:46.221Z,17.46
2019-05-19T06:55:13.804Z,17.55
2019-05-19T06:57:40.865Z,17.75
2019-05-19T07:00:08.347Z,17.77
2019-05-19T07:02:35.389Z,17.95
2019-05-19T07:05:02.747Z,18.03
2019-05-19T07:07:29.776Z,18.05
2019-05-19T07:09:58.763Z,18.00
2019-05-19T07:12:25.808Z,18.16
2019-05-19T07:14:52.863Z,18.20
2019-05-19T07:17:19.939Z,18.29
2019-05-19T07:19:46.999Z,18.36
2019-05-19T07:22:14.066Z,18.32
2019-05-19T07:24:41.162Z,18.60
2019-05-19T07:27:08.338Z,18.62
2019-05-19T07:29:35.374Z,18.89
2019-05-19T07:32:02.521Z,18.90
2019-05-19T07:34:29.692Z,18.89
2019-05-19T07:37:02.856Z,19.06
2019-05-19T07:39:32.427Z,19.21
2019-05-19T07:41:59.501Z,19.35
2019-05-19T07:44:26.508Z,19.67
2019-05-19T07:46:53.835Z,19.51
2019-05-19T07:49:20.893Z,19.72
2019-05-19T07:51:47.900Z,19.48
2019-05-19T07:54:14.974Z,19.50
2019-05-19T07:56:42.025Z,19.58
2019-05-19T07:59:09.066Z,19.57
2019-05-19T08:01:36.180Z,19.57
2019-05-19T08:04:03.257Z,19.49
2019-05-19T08:06:30.322Z,19.55
2019-05-19T08:08:57.435Z,19.76
2019-05-19T08:11:27.225Z,19.86
2019-05-19T08:13:54.326Z,19.87
2019-05-19T08:16:21.397Z,20.09
2019-05-19T08:18:48.492Z,19.95
2019-05-19T08:21:15.539Z,20.00
2019-05-19T08:23:58.535Z,19.71
2019-05-19T08:26:11.582Z,19.86
2019-05-19T08:28:38.679Z,19.70
2019-05-19T08:31:05.745Z,19.50
2019-05-19T08:33:33.199Z,19.25
2019-05-19T08:36:00.318Z,18.85
2019-05-19T08:38:30.382Z,18.78
2019-05-19T08:40:57.434Z,18.72
2019-05-19T08:43:24.481Z,18.32
2019-05-19T08:45:55.841Z,18.03
2019-05-19T08:48:23.009Z,17.73
2019-05-19T08:50:50.035Z,17.67
2019-05-19T08:53:17.126Z,17.45
2019-05-19T08:55:44.164Z,17.06
2019-05-19T08:58:11.233Z,16.98
2019-05-19T09:00:38.755Z,16.78
2019-05-19T09:03:06.034Z,16.59
2019-05-19T09:05:33.127Z,16.74
2019-05-19T09:08:00.270Z,16.79
2019-05-19T09:10:27.355Z,16.75
2019-05-19T09:12:54.435Z,16.47
2019-05-19T09:15:21.531Z,16.49
2019-05-19T09:17:48.581Z,16.55
2019-05-19T09:20:15.856Z,16.50
2019-05-19T09:22:42.954Z,16.48
2019-05-19T09:25:10.047Z,16.52
2019-05-19T09:27:37.125Z,16.41
2019-05-19T09:30:05.141Z,16.47
2019-05-19T09:32:32.249Z,16.67
2019-05-19T09:35:02.376Z,16.91
2019-05-19T09:37:29.444Z,16.99
2019-05-19T09:39:56.513Z,17.04
2019-05-19T09:42:23.614Z,17.20
2019-05-19T09:44:50.712Z,17.05
2019-05-19T09:47:17.786Z,17.00
2019-05-19T09:49:44.853Z,17.07
2019-05-19T09:52:16.540Z,17.09
2019-05-19T09:54:45.090Z,17.20
2019-05-19T09:57:10.229Z,17.18
2019-05-19T09:59:37.313Z,17.40
2019-05-19T10:02:04.345Z,17.22
2019-05-19T10:04:31.505Z,17.09
2019-05-19T10:06:58.537Z,17.05
2019-05-19T10:09:55.254Z,17.08
2019-05-19T10:12:22.318Z,16.87
2019-05-19T10:14:49.363Z,16.65
2019-05-19T10:17:16.431Z,16.64
2019-05-19T10:19:43.486Z,16.47
2019-05-19T10:22:10.589Z,16.41
2019-05-19T10:24:37.734Z,16.70
2019-05-19T10:27:04.783Z,16.80
2019-05-19T10:29:31.825Z,16.52
2019-05-19T10:31:58.876Z,16.29
2019-05-19T10:34:26.005Z,16.03
2019-05-19T10:36:53.144Z,15.92
2019-05-19T10:39:20.240Z,15.93
2019-05-19T10:41:47.265Z,15.84
2019-05-19T10:44:14.330Z,15.73
2019-05-19T10:46:41.365Z,15.49
2019-05-19T10:49:08.379Z,15.44
2019-05-19T10:51:35.443Z,15.43
2019-05-19T10:54:02.507Z,15.65
2019-05-19T10:56:29.576Z,15.63
2019-05-19T10:58:56.650Z,15.52
2019-05-19T11:01:23.689Z,15.50
2019-05-19T11:03:50.736Z,15.75
2019-05-19T11:06:17.787Z,15.46
2019-05-19T11:08:44.819Z,15.51
2019-05-19T11:11:11.854Z,15.54
2019-05-19T11:13:38.958Z,15.51
2019-05-19T11:16:05.972Z,15.53
2019-05-19T11:18:33.031Z,15.52
2019-05-19T11:21:00.138Z,15.55
2019-05-19T11:23:27.286Z,15.51
2019-05-19T11:25:54.362Z,15.55
2019-05-19T11:28:21.408Z,15.53
2019-05-19T11:30:48.417Z,15.70
2019-05-19T11:33:15.438Z,15.57
2019-05-19T11:35:42.488Z,15.46
2019-05-19T11:38:09.612Z,15.45
2019-05-19T11:40:36.637Z,15.34
2019-05-19T11:43:03.725Z,15.57
2019-05-19T11:45:30.766Z,15.74
2019-05-19T11:47:57.779Z,15.94
2019-05-19T11:50:24.821Z,15.87
2019-05-19T11:52:51.857Z,15.81
2019-05-19T11:55:18.871Z,15.84
2019-05-19T11:57:45.918Z,15.85
2019-05-19T12:00:13.376Z,16.05
2019-05-19T12:02:40.449Z,15.93
2019-05-19T12:05:07.759Z,16.01
2019-05-19T12:07:34.799Z,15.90
2019-05-19T12:10:01.849Z,15.89
2019-05-19T12:12:28.895Z,15.86
2019-05-19T12:14:55.934Z,15.97
2019-05-19T12:17:22.943Z,16.01
2019-05-19T12:19:49.987Z,16.06
2019-05-19T12:22:17.003Z,16.08
2019-05-19T12:24:44.127Z,16.26
2019-05-19T12:27:11.194Z,16.31
2019-05-19T12:29:38.222Z,16.46
2019-05-19T12:32:05.279Z,16.43
2019-05-19T12:34:32.400Z,16.48
2019-05-19T12:36:59.493Z,16.52
2019-05-19T12:39:26.603Z,16.63
2019-05-19T12:41:53.666Z,16.59
2019-05-19T12:44:20.685Z,16.65
2019-05-19T12:46:47.764Z,16.75
2019-05-19T12:49:14.841Z,16.73
2019-05-19T12:51:41.887Z,16.68
2019-05-19T12:54:08.940Z,16.83
2019-05-19T12:56:39.824Z,16.79
2019-05-19T12:59:04.947Z,16.81
2019-05-19T13:01:31.975Z,16.86
2019-05-19T13:03:59.016Z,16.82
2019-05-19T13:06:26.045Z,16.96
2019-05-19T13:08:53.063Z,16.83
2019-05-19T13:11:20.209Z,16.75
2019-05-19T13:13:47.235Z,16.54
2019-05-19T13:16:14.282Z,16.62
2019-05-19T13:18:41.363Z,16.45
2019-05-19T13:21:08.416Z,16.43
2019-05-19T13:23:35.456Z,16.44
2019-05-19T13:26:02.533Z,16.73
2019-05-19T13:28:29.596Z,16.63
2019-05-19T13:30:56.613Z,16.72
2019-05-19T13:33:23.676Z,16.66
2019-05-19T13:35:50.775Z,16.71
2019-05-19T13:38:17.878Z,16.76
2019-05-19T13:40:44.931Z,16.86
2019-05-19T13:43:11.976Z,16.69
2019-05-19T13:45:39.013Z,16.78
2019-05-19T13:48:06.143Z,16.64
2019-05-19T13:50:33.173Z,16.75
2019-05-19T13:53:00.199Z,16.92
2019-05-19T13:55:27.242Z,16.89
2019-05-19T13:57:54.244Z,16.76
2019-05-19T14:00:21.369Z,16.83
2019-05-19T14:02:48.436Z,16.79
2019-05-19T14:05:15.457Z,16.89
2019-05-19T14:07:42.514Z,16.92
2019-05-19T14:10:09.671Z,16.89
2019-05-19T14:12:36.687Z,16.62
2019-05-19T14:15:04.379Z,16.58
2019-05-19T14:17:31.567Z,16.62
2019-05-19T14:19:58.576Z,16.49
2019-05-19T14:22:25.621Z,16.39
2019-05-19T14:24:52.636Z,16.43
2019-05-19T14:27:29.169Z,16.11
2019-05-19T14:29:48.725Z,16.00
2019-05-19T14:32:15.738Z,15.98
2019-05-19T14:34:42.768Z,15.86
2019-05-19T14:37:09.809Z,15.78
2019-05-19T14:39:36.835Z,15.89
2019-05-19T14:42:07.660Z,16.04
2019-05-19T14:44:34.689Z,16.09
2019-05-19T14:47:01.726Z,16.19
2019-05-19T14:49:28.813Z,16.11
2019-05-19T14:51:55.816Z,16.04
2019-05-19T14:54:22.832Z,15.97
2019-05-19T14:56:49.902Z,16.01
2019-05-19T14:59:16.924Z,16.01
2019-05-19T15:01:43.967Z,16.03
2019-05-19T15:04:10.990Z,16.10
2019-05-19T15:06:38.000Z,16.11
2019-05-19T15:09:05.803Z,16.17
2019-05-19T15:11:32.819Z,16.03
2019-05-19T15:13:59.830Z,16.04
2019-05-19T15:16:27.733Z,15.81
2019-05-19T15:18:54.758Z,15.93
2019-05-19T15:21:21.793Z,16.04
2019-05-19T15:23:48.825Z,16.20
2019-05-19T15:26:15.863Z,16.20
2019-05-19T15:28:42.867Z,16.13
2019-05-19T15:31:09.908Z,15.97
2019-05-19T15:33:38.670Z,15.89
2019-05-19T15:36:06.337Z,16.06
2019-05-19T15:38:33.609Z,16.12
2019-05-19T15:41:00.776Z,15.69
2019-05-19T15:43:27.799Z,15.76
2019-05-19T15:45:54.811Z,15.64
2019-05-19T15:48:21.823Z,15.58
2019-05-19T15:50:48.992Z,15.68
2019-05-19T15:53:16.009Z,15.69
2019-05-19T15:55:43.067Z,15.70
2019-05-19T15:58:16.497Z,15.70
2019-05-19T16:00:39.055Z,15.64
2019-05-19T16:03:06.126Z,15.67
2019-05-19T16:05:33.141Z,15.68
2019-05-19T16:08:00.220Z,15.73
2019-05-19T16:10:27.346Z,15.70
2019-05-19T16:12:54.318Z,15.93
2019-05-19T16:15:22.396Z,15.90
2019-05-19T16:17:49.412Z,16.06
2019-05-19T16:20:16.773Z,15.97
2019-05-19T16:22:43.785Z,16.16
2019-05-19T16:25:11.202Z,16.06
2019-05-19T16:27:38.253Z,16.10
2019-05-19T16:30:05.812Z,15.98
2019-05-19T16:32:32.822Z,16.25
2019-05-19T16:34:59.858Z,16.27
2019-05-19T16:37:26.931Z,16.17
2019-05-19T16:39:53.956Z,16.30
2019-05-19T16:42:20.996Z,16.41
2019-05-19T16:44:48.030Z,16.50
2019-05-19T16:47:15.063Z,16.50
2019-05-19T16:49:42.176Z,16.55
2019-05-19T16:52:09.219Z,16.44
2019-05-19T16:54:38.750Z,16.50
2019-05-19T16:57:05.823Z,16.52
2019-05-19T16:59:32.860Z,16.42
2019-05-19T17:01:59.902Z,16.28
2019-05-19T17:04:26.956Z,16.20
2019-05-19T17:06:54.138Z,16.16
2019-05-19T17:09:21.209Z,16.14
2019-05-19T17:11:48.249Z,15.92
2019-05-19T17:14:15.321Z,16.07
2019-05-19T17:16:43.199Z,16.02
2019-05-19T17:19:10.249Z,15.90
2019-05-19T17:21:37.276Z,15.79
2019-05-19T17:24:04.344Z,15.79
2019-05-19T17:26:31.419Z,15.81
2019-05-19T17:29:00.958Z,15.76
2019-05-19T17:31:27.422Z,15.81
2019-05-19T17:33:54.471Z,15.76
2019-05-19T17:36:21.552Z,15.89
2019-05-19T17:38:48.623Z,15.85
2019-05-19T17:41:15.656Z,15.82
2019-05-19T17:43:42.762Z,15.49
2019-05-19T17:46:09.777Z,15.64
2019-05-19T17:48:36.803Z,15.48
2019-05-19T17:51:03.967Z,15.49
2019-05-19T17:53:31.024Z,15.43
2019-05-19T17:55:58.837Z,15.47
2019-05-19T17:58:26.947Z,15.67
2019-05-19T18:00:53.975Z,15.57
2019-05-19T18:03:21.759Z,15.62
2019-05-19T18:05:48.800Z,15.52
2019-05-19T18:08:15.801Z,15.57
2019-05-19T18:10:42.858Z,15.49
2019-05-19T18:13:09.940Z,15.56
2019-05-19T18:15:36.985Z,15.59
2019-05-19T18:18:04.030Z,15.59
2019-05-19T18:20:33.931Z,15.64
2019-05-19T18:23:00.938Z,15.51
2019-05-19T18:25:28.007Z,15.63
2019-05-19T18:27:55.274Z,15.63
2019-05-19T18:30:22.318Z,15.45
2019-05-19T18:32:49.370Z,15.44
2019-05-19T18:35:16.373Z,15.51
2019-05-19T18:37:43.466Z,15.44
2019-05-19T18:40:10.516Z,15.47
2019-05-19T18:42:37.538Z,15.53
2019-05-19T18:45:04.654Z,15.44
2019-05-19T18:47:31.730Z,15.45
2019-05-19T18:49:58.798Z,15.42
2019-05-19T18:52:25.855Z,15.46
2019-05-19T18:54:52.935Z,15.61
2019-05-19T18:57:20.002Z,15.60
2019-05-19T18:59:47.911Z,15.45
2019-05-19T19:02:15.266Z,15.37
2019-05-19T19:04:42.275Z,15.49
2019-05-19T19:07:09.313Z,15.49
2019-05-19T19:09:36.307Z,15.45
2019-05-19T19:12:03.354Z,15.50
2019-05-19T19:14:30.429Z,15.51
2019-05-19T19:16:57.435Z,15.56
2019-05-19T19:19:24.458Z,15.49
2019-05-19T19:21:51.487Z,15.54
2019-05-19T19:24:18.496Z,15.56
2019-05-19T19:26:45.538Z,15.47
2019-05-19T19:29:12.571Z,15.57
2019-05-19T19:31:47.981Z,15.56
2019-05-19T19:34:08.551Z,15.49
2019-05-19T19:36:35.680Z,15.47
2019-05-19T19:39:04.234Z,15.51
2019-05-19T19:41:31.294Z,15.43
2019-05-19T19:43:58.310Z,15.50
2019-05-19T19:46:25.321Z,15.42
2019-05-19T19:48:52.346Z,15.41
2019-05-19T19:51:19.421Z,15.27
2019-05-19T19:53:46.430Z,15.39
2019-05-19T19:56:13.454Z,15.42
2019-05-19T19:58:40.529Z,15.51
2019-05-19T20:01:07.593Z,15.48
2019-05-19T20:03:39.802Z,15.48
2019-05-19T20:06:04.025Z,15.37
2019-05-19T20:08:31.055Z,15.41
2019-05-19T20:10:58.142Z,15.49
2019-05-19T20:13:25.175Z,15.41
2019-05-19T20:15:52.207Z,15.54
2019-05-19T20:18:19.273Z,15.43
2019-05-19T20:20:46.293Z,15.44
2019-05-19T20:23:13.329Z,15.55
2019-05-19T20:25:40.407Z,15.67
2019-05-19T20:28:07.445Z,15.72
2019-05-19T20:30:36.413Z,15.75
2019-05-19T20:33:03.519Z,15.82
2019-05-19T20:35:31.854Z,15.84
2019-05-19T20:37:58.960Z,15.80
2019-05-19T20:40:26.028Z,15.82
2019-05-19T20:42:53.040Z,15.81
2019-05-19T20:45:20.095Z,15.85
2019-05-19T20:47:47.152Z,15.84
2019-05-19T20:50:14.183Z,15.82
2019-05-19T20:52:41.203Z,15.82
2019-05-19T20:55:08.214Z,15.79
2019-05-19T20:57:35.269Z,15.76
2019-05-19T21:00:02.553Z,15.74
2019-05-19T21:02:29.622Z,15.74
2019-05-19T21:04:56.630Z,15.68
2019-05-19T21:07:23.651Z,15.68
2019-05-19T21:09:50.686Z,15.65
2019-05-19T21:12:17.710Z,15.62
2019-05-19T21:14:44.750Z,15.56
2019-05-19T21:17:11.774Z,15.54
2019-05-19T21:19:38.935Z,15.52
2019-05-19T21:22:05.924Z,15.53
2019-05-19T21:24:32.956Z,15.49
2019-05-19T21:27:00.051Z,15.43
2019-05-19T21:29:27.080Z,15.40
2019-05-19T21:31:54.090Z,15.40
2019-05-19T21:34:21.172Z,15.38
2019-05-19T21:36:48.306Z,15.32
2019-05-19T21:39:15.348Z,15.33
2019-05-19T21:41:42.461Z,15.33
2019-05-19T21:44:09.493Z,15.37
2019-05-19T21:46:36.483Z,15.40
2019-05-19T21:49:03.554Z,15.36
2019-05-19T21:51:30.592Z,15.36
2019-05-19T21:53:57.640Z,15.34
2019-05-19T21:56:24.690Z,15.30
2019-05-19T21:58:51.727Z,15.29
2019-05-19T22:01:23.143Z,15.32
2019-05-19T22:03:47.871Z,15.25
2019-05-19T22:06:15.719Z,15.28
2019-05-19T22:08:42.763Z,15.24
2019-05-19T22:11:09.840Z,15.28
2019-05-19T22:13:36.906Z,15.25
2019-05-19T22:16:13.011Z,15.25
2019-05-19T22:18:32.921Z,15.21
2019-05-19T22:21:00.017Z,15.17
2019-05-19T22:23:27.022Z,15.20
2019-05-19T22:25:54.080Z,15.19
2019-05-19T22:28:21.123Z,15.18
2019-05-19T22:30:48.165Z,15.14
2019-05-19T22:33:15.189Z,15.10
2019-05-19T22:35:42.238Z,14.95
2019-05-19T22:38:09.774Z,15.04
2019-05-19T22:40:36.909Z,15.06
2019-05-19T22:43:03.932Z,15.15
2019-05-19T22:45:31.030Z,15.17
2019-05-19T22:47:58.043Z,15.15
2019-05-19T22:50:25.120Z,15.25
2019-05-19T22:52:52.126Z,15.21
2019-05-19T22:55:19.261Z,15.16
2019-05-19T22:57:46.319Z,15.22
2019-05-19T23:00:15.177Z,15.23
2019-05-19T23:02:42.225Z,15.20
2019-05-19T23:05:09.563Z,15.24
2019-05-19T23:07:36.668Z,15.37
2019-05-19T23:10:04.476Z,15.40
2019-05-19T23:12:31.507Z,15.50
2019-05-19T23:14:58.645Z,15.55
2019-05-19T23:17:25.650Z,15.53
2019-05-19T23:19:52.690Z,15.58
2019-05-19T23:22:19.790Z,15.59
2019-05-19T23:24:46.895Z,15.61
2019-05-19T23:27:13.925Z,15.64
2019-05-19T23:29:40.980Z,15.58
2019-05-19T23:32:08.027Z,15.58
2019-05-19T23:34:35.243Z,15.54
2019-05-19T23:37:02.326Z,15.58
2019-05-19T23:39:29.503Z,15.51
2019-05-19T23:41:56.587Z,15.28
2019-05-19T23:44:23.675Z,15.36
2019-05-19T23:46:50.687Z,15.25
2019-05-19T23:49:17.754Z,15.29
2019-05-19T23:51:44.851Z,15.35
2019-05-19T23:54:11.927Z,15.34
2019-05-19T23:56:38.960Z,15.33
2019-05-19T23:59:06.017Z,15.33
